Hlavní strana
METAR-TAF:

METAR-TAF

Letiště :

Charbin, Čína

Mezinárodní letiště Charbin Tchaj-pching

zeměpisná šířka: 45-45N, zeměpisná délka: 126-46E, výška: 143 m

Aktuální stav počasí

Zpráva byla vytvořena před 36 minutami, v 16:00 UTC
Jihozápadní vítr 14 kt
Teplota 17°C
Vlhkost vzduchu 25%
Tlak 1002 hPa
Viditelnost 10 km a více
Žádná oblačnost pod 1500 m, nevyskytují se cumulonimby.

METAR: ZYHB 251600Z 23007MPS CAVOK 17/M03 Q1002 NOSIG

Čas: 00:36 (16:36 UTC)

Předpověď počasí

Zpráva byla vytvořena před 7 hodinami a 24 minutami, v 09:12 UTC
Předpověď platná od 25 v 12 UTC do 26 v 12 UTC
Západojihozápadní vítr 12 kt s nárazy do 25 kt
Viditelnost: 6000 m
Skoro jasno ve výšce 3000 ft
Změna
od 25 v 21 UTC do 25 v 23 UTC
Severoseverozápadní vítr 17 kt s nárazy do 31 kt

TAF: ZYHB 250912Z 2512/2612 24006G13MPS 6000 FEW030 TX20/2512Z TN12/2521Z BECMG 2521/2523 34009G16MPS

Stav a předpovědi počasí z více než 4 000 letišť (zprávy METAR a TAF).

Červené a žluté tečky na mapě představují dostupné meteorologické stanice.

Když kurzor umístíte na tečku, zobrazí se název stanice.

Pak kliknutím zobrazíte stav a předpověď počasí.

Chcete-li změnit mapu, kliknutím na zelené tlačítko se znaménkem +mapu přiblížíte, kliknutím na zelené tlačítko se znaménkem – mapu oddálíte a kliknutím na zelené šipky přejdete na sousední mapy.


METAR-TAF: